createdAt,value
2023-05-02T00:01:44.237Z,10.99
2023-05-02T00:04:16.289Z,11.00
2023-05-02T00:06:48.356Z,11.03
2023-05-02T00:09:20.364Z,11.08
2023-05-02T00:11:50.660Z,11.14
2023-05-02T00:14:22.480Z,11.19
2023-05-02T00:16:54.165Z,11.25
2023-05-02T00:19:26.024Z,11.31
2023-05-02T00:21:57.719Z,11.36
2023-05-02T00:24:29.500Z,11.40
2023-05-02T00:27:01.200Z,11.45
2023-05-02T00:29:33.344Z,11.48
2023-05-02T00:32:05.199Z,11.52
2023-05-02T00:34:37.078Z,11.54
2023-05-02T00:37:09.633Z,11.55
2023-05-02T00:39:41.722Z,11.57
2023-05-02T00:42:13.622Z,11.57
2023-05-02T00:44:45.865Z,11.58
2023-05-02T00:47:18.407Z,11.60
2023-05-02T00:49:50.693Z,11.61
2023-05-02T00:52:22.826Z,11.63
2023-05-02T00:54:53.121Z,11.65
2023-05-02T00:57:25.589Z,11.65
2023-05-02T00:59:58.232Z,11.67
2023-05-02T01:02:39.870Z,11.68
2023-05-02T01:05:20.356Z,11.69
2023-05-02T01:08:15.199Z,11.71
2023-05-02T01:10:53.848Z,11.72
2023-05-02T01:13:30.307Z,11.73
2023-05-02T01:16:04.587Z,11.75
2023-05-02T01:18:40.530Z,11.76
2023-05-02T01:21:13.436Z,11.79
2023-05-02T01:24:01.825Z,11.82
2023-05-02T01:26:41.147Z,11.84
2023-05-02T01:29:15.478Z,11.87
2023-05-02T01:31:51.456Z,11.90
2023-05-02T01:34:24.418Z,11.93
2023-05-02T01:36:59.329Z,11.96
2023-05-02T01:39:31.750Z,11.97
2023-05-02T01:42:06.102Z,12.00
2023-05-02T01:44:39.714Z,12.01
2023-05-02T01:47:13.246Z,12.02
2023-05-02T01:49:47.582Z,12.03
2023-05-02T01:52:21.845Z,12.04
2023-05-02T01:54:54.969Z,12.05
2023-05-02T01:57:27.127Z,12.06
2023-05-02T02:00:01.298Z,12.07
2023-05-02T02:02:36.056Z,12.10
2023-05-02T02:05:12.429Z,12.12
2023-05-02T02:07:45.558Z,12.12
2023-05-02T02:10:17.684Z,12.14
2023-05-02T02:12:56.810Z,12.15
2023-05-02T02:15:32.168Z,12.15
2023-05-02T02:18:10.404Z,12.15
2023-05-02T02:20:47.141Z,12.15
2023-05-02T02:23:20.898Z,12.16
2023-05-02T02:25:55.245Z,12.16
2023-05-02T02:28:27.106Z,12.15
2023-05-02T02:31:00.639Z,12.15
2023-05-02T02:33:33.170Z,12.14
2023-05-02T02:36:13.223Z,12.13
2023-05-02T02:38:49.705Z,12.11
2023-05-02T02:41:27.498Z,12.13
2023-05-02T02:44:07.245Z,12.12
2023-05-02T02:46:48.322Z,12.10
2023-05-02T02:49:33.090Z,12.08
2023-05-02T02:52:11.630Z,12.07
2023-05-02T02:54:48.076Z,12.06
2023-05-02T02:57:30.030Z,12.06
2023-05-02T03:00:12.824Z,12.04
2023-05-02T03:02:47.710Z,12.05
2023-05-02T03:05:20.587Z,12.06
2023-05-02T03:07:52.588Z,12.05
2023-05-02T03:10:26.132Z,12.03
2023-05-02T03:12:57.939Z,12.01
2023-05-02T03:15:59.425Z,12.01
2023-05-02T03:18:33.611Z,11.99
2023-05-02T03:21:05.606Z,11.97
2023-05-02T03:23:37.583Z,11.95
2023-05-02T03:26:09.755Z,11.96
2023-05-02T03:28:42.197Z,11.95
2023-05-02T03:31:14.787Z,11.95
2023-05-02T03:33:47.017Z,11.96
2023-05-02T03:36:19.030Z,11.97
2023-05-02T03:38:50.964Z,11.99
2023-05-02T03:41:21.399Z,12.03
2023-05-02T03:43:55.053Z,12.04
2023-05-02T03:46:28.420Z,12.07
2023-05-02T03:49:01.545Z,12.08
2023-05-02T03:51:34.368Z,12.07
2023-05-02T03:54:06.276Z,12.07
2023-05-02T03:56:41.283Z,12.06
2023-05-02T03:59:20.272Z,12.05
2023-05-02T04:01:52.820Z,12.04
2023-05-02T04:04:29.253Z,12.04
2023-05-02T04:07:01.397Z,12.05
2023-05-02T04:09:33.406Z,12.05
2023-05-02T04:12:11.443Z,12.08
2023-05-02T04:14:46.798Z,12.11
2023-05-02T04:17:17.362Z,12.17
2023-05-02T04:19:54.494Z,12.22
2023-05-02T04:22:29.700Z,12.30
2023-05-02T04:25:05.297Z,12.41
2023-05-02T04:27:38.646Z,12.45
2023-05-02T04:30:13.056Z,12.39
2023-05-02T04:32:47.073Z,12.35
2023-05-02T04:35:20.148Z,12.38
2023-05-02T04:37:53.285Z,12.45
2023-05-02T04:40:25.538Z,12.51
2023-05-02T04:43:04.096Z,12.62
2023-05-02T04:45:43.949Z,12.72
2023-05-02T04:48:21.785Z,12.83
2023-05-02T04:50:54.973Z,12.97
2023-05-02T04:53:27.152Z,13.10
2023-05-02T04:55:57.719Z,13.19
2023-05-02T04:58:29.600Z,13.25
2023-05-02T05:01:05.385Z,13.41
2023-05-02T05:03:37.321Z,13.64
2023-05-02T05:06:10.420Z,13.91
2023-05-02T05:08:42.503Z,14.15
2023-05-02T05:11:14.612Z,14.39
2023-05-02T05:13:45.006Z,14.65
2023-05-02T05:16:17.486Z,14.92
2023-05-02T05:18:49.868Z,15.17
2023-05-02T05:21:21.618Z,15.34
2023-05-02T05:23:54.202Z,15.53
2023-05-02T05:26:30.138Z,15.65
2023-05-02T05:29:02.118Z,15.82
2023-05-02T05:31:38.673Z,16.00
2023-05-02T05:34:11.574Z,16.17
2023-05-02T05:36:44.112Z,16.32
2023-05-02T05:39:16.500Z,16.45
2023-05-02T05:41:49.977Z,16.62
2023-05-02T05:44:22.318Z,16.79
2023-05-02T05:46:54.432Z,16.96
2023-05-02T05:49:27.638Z,17.15
2023-05-02T05:52:00.465Z,17.31
2023-05-02T05:54:32.534Z,17.48
2023-05-02T05:57:05.114Z,17.64
2023-05-02T05:59:38.703Z,17.72
2023-05-02T06:02:10.912Z,17.75
2023-05-02T06:04:43.065Z,17.83
2023-05-02T06:07:15.733Z,17.92
2023-05-02T06:09:47.529Z,17.96
2023-05-02T06:12:21.486Z,17.99
2023-05-02T06:14:54.116Z,18.05
2023-05-02T06:17:26.584Z,18.11
2023-05-02T06:19:58.835Z,18.18
2023-05-02T06:22:30.708Z,18.28
2023-05-02T06:25:01.648Z,18.29
2023-05-02T06:27:33.826Z,18.30
2023-05-02T06:30:06.790Z,18.34
2023-05-02T06:32:38.599Z,18.37
2023-05-02T06:35:09.757Z,18.44
2023-05-02T06:37:41.580Z,18.55
2023-05-02T06:40:13.561Z,18.64
2023-05-02T06:42:45.438Z,18.69
2023-05-02T06:45:15.835Z,18.72
2023-05-02T06:47:47.842Z,18.76
2023-05-02T06:50:21.055Z,18.67
2023-05-02T06:52:52.696Z,18.51
2023-05-02T06:55:23.088Z,18.45
2023-05-02T06:57:55.386Z,18.32
2023-05-02T07:00:27.304Z,18.24
2023-05-02T07:02:59.315Z,18.29
2023-05-02T07:05:32.063Z,18.27
2023-05-02T07:08:03.690Z,18.22
2023-05-02T07:10:35.480Z,18.14
2023-05-02T07:13:07.555Z,18.25
2023-05-02T07:15:39.802Z,18.34
2023-05-02T07:18:11.785Z,18.35
2023-05-02T07:20:43.693Z,18.41
2023-05-02T07:23:13.880Z,18.41
2023-05-02T07:25:45.945Z,18.42
2023-05-02T07:28:17.761Z,18.48
2023-05-02T07:30:48.398Z,18.49
2023-05-02T07:33:20.290Z,18.44
2023-05-02T07:35:52.225Z,18.48
2023-05-02T07:38:24.021Z,18.48
2023-05-02T07:40:54.597Z,18.49
2023-05-02T07:43:26.630Z,18.46
2023-05-02T07:45:58.408Z,18.41
2023-05-02T07:48:28.686Z,18.62
2023-05-02T07:51:08.433Z,18.74
2023-05-02T07:53:40.240Z,18.57
2023-05-02T07:56:10.550Z,18.40
2023-05-02T07:58:42.252Z,18.33
2023-05-02T08:01:15.535Z,18.50
2023-05-02T08:03:47.775Z,18.76
2023-05-02T08:06:20.062Z,19.20
2023-05-02T08:08:51.843Z,19.65
2023-05-02T08:11:23.856Z,20.06
2023-05-02T08:13:54.188Z,20.41
2023-05-02T08:16:26.158Z,20.65
2023-05-02T08:18:57.992Z,20.83
2023-05-02T08:21:28.534Z,20.78
2023-05-02T08:24:02.423Z,20.48
2023-05-02T08:26:34.360Z,20.50
2023-05-02T08:29:06.103Z,20.47
2023-05-02T08:31:36.319Z,20.49
2023-05-02T08:34:08.365Z,20.50
2023-05-02T08:36:40.248Z,20.60
2023-05-02T08:39:12.210Z,20.61
2023-05-02T08:41:44.887Z,20.56
2023-05-02T08:44:16.685Z,20.45
2023-05-02T08:46:50.938Z,20.19
2023-05-02T08:49:23.853Z,19.91
2023-05-02T08:51:57.898Z,19.80
2023-05-02T08:54:30.046Z,19.71
2023-05-02T08:57:04.902Z,19.60
2023-05-02T08:59:36.757Z,19.50
2023-05-02T09:02:13.680Z,19.46
2023-05-02T09:04:46.449Z,19.27
2023-05-02T09:07:22.173Z,19.10
2023-05-02T09:09:53.999Z,18.97
2023-05-02T09:12:27.694Z,18.93
2023-05-02T09:15:16.993Z,18.85
2023-05-02T09:17:51.222Z,18.82
2023-05-02T09:20:25.794Z,18.83
2023-05-02T09:22:57.678Z,18.78
2023-05-02T09:25:37.512Z,18.62
2023-05-02T09:28:09.241Z,18.36
2023-05-02T09:30:41.035Z,18.16
2023-05-02T09:33:11.779Z,18.03
2023-05-02T09:35:56.368Z,17.90
2023-05-02T09:38:28.162Z,17.80
2023-05-02T09:41:00.566Z,17.71
2023-05-02T09:43:33.719Z,17.60
2023-05-02T09:46:06.935Z,17.53
2023-05-02T09:48:56.002Z,17.48
2023-05-02T09:51:28.292Z,17.38
2023-05-02T09:54:00.206Z,17.32
2023-05-02T09:56:30.726Z,17.25
2023-05-02T09:59:16.384Z,17.16
2023-05-02T10:01:56.091Z,17.11
2023-05-02T10:04:29.499Z,17.07
2023-05-02T10:07:02.763Z,17.05
2023-05-02T10:09:39.521Z,17.02
2023-05-02T10:12:14.728Z,16.99
2023-05-02T10:14:50.798Z,16.97
2023-05-02T10:17:29.525Z,16.95
2023-05-02T10:20:05.777Z,16.94
2023-05-02T10:22:37.879Z,16.94
2023-05-02T10:25:12.193Z,16.95
2023-05-02T10:27:44.884Z,16.94
2023-05-02T10:30:17.840Z,16.92
2023-05-02T10:32:50.516Z,16.85
2023-05-02T10:35:24.450Z,16.77
2023-05-02T10:37:56.518Z,16.75
2023-05-02T10:40:29.088Z,16.80
2023-05-02T10:43:01.048Z,16.82
2023-05-02T10:45:35.208Z,16.88
2023-05-02T10:48:25.101Z,16.89
2023-05-02T10:50:58.625Z,16.90
2023-05-02T10:53:33.218Z,16.92
2023-05-02T10:56:22.472Z,16.92
2023-05-02T10:58:54.805Z,16.88
2023-05-02T11:01:42.279Z,16.84
2023-05-02T11:04:14.925Z,16.76
2023-05-02T11:07:13.798Z,16.60
2023-05-02T11:09:45.829Z,16.48
2023-05-02T11:12:47.690Z,16.54
2023-05-02T11:15:53.768Z,16.61
2023-05-02T11:18:26.419Z,16.69
2023-05-02T11:21:32.033Z,16.77
2023-05-02T11:24:40.285Z,16.82
2023-05-02T11:27:39.411Z,16.81
2023-05-02T11:30:14.109Z,16.63
2023-05-02T11:33:16.138Z,16.37
2023-05-02T11:35:50.252Z,16.14
2023-05-02T11:38:23.841Z,16.06
2023-05-02T11:41:04.220Z,15.95
2023-05-02T11:43:36.412Z,15.86
2023-05-02T11:46:10.346Z,15.80
2023-05-02T11:48:42.808Z,15.77
2023-05-02T11:51:15.040Z,15.81
2023-05-02T11:53:47.356Z,15.90
2023-05-02T11:56:26.870Z,16.01
2023-05-02T11:59:05.400Z,16.10
2023-05-02T12:01:37.493Z,16.19
2023-05-02T12:04:11.850Z,16.26
2023-05-02T12:06:57.725Z,16.35
2023-05-02T12:09:29.538Z,16.46
2023-05-02T12:12:02.919Z,16.58
2023-05-02T12:14:36.536Z,16.67
2023-05-02T12:17:08.924Z,16.68
2023-05-02T12:19:41.404Z,16.76
2023-05-02T12:22:14.678Z,16.83
2023-05-02T12:24:47.446Z,16.89
2023-05-02T12:27:19.911Z,16.97
2023-05-02T12:29:54.685Z,17.03
2023-05-02T12:32:32.790Z,17.06
2023-05-02T12:35:06.082Z,17.08
2023-05-02T12:37:38.008Z,17.11
2023-05-02T12:40:18.143Z,17.14
2023-05-02T12:43:06.645Z,17.16
2023-05-02T12:45:42.115Z,17.18
2023-05-02T12:48:25.724Z,17.23
2023-05-02T12:50:58.609Z,17.30
2023-05-02T12:53:44.378Z,17.42
2023-05-02T12:56:19.957Z,17.54
2023-05-02T12:58:53.153Z,17.60
2023-05-02T13:01:25.510Z,17.62
2023-05-02T13:03:57.384Z,17.69
2023-05-02T13:06:32.261Z,17.78
2023-05-02T13:09:04.906Z,17.81
2023-05-02T13:11:36.940Z,17.83
2023-05-02T13:14:08.733Z,17.89
2023-05-02T13:16:39.253Z,18.00
2023-05-02T13:19:11.027Z,18.05
2023-05-02T13:21:42.928Z,18.04
2023-05-02T13:24:15.066Z,18.07
2023-05-02T13:26:47.134Z,18.13
2023-05-02T13:29:19.169Z,18.21
2023-05-02T13:31:51.099Z,18.32
2023-05-02T13:34:22.992Z,18.39
2023-05-02T13:36:53.247Z,18.41
2023-05-02T13:39:24.935Z,18.37
2023-05-02T13:41:56.892Z,18.41
2023-05-02T13:44:27.167Z,18.37
2023-05-02T13:49:44.971Z,18.22
2023-05-02T13:52:15.348Z,18.17
2023-05-02T13:54:47.426Z,18.10
2023-05-02T13:57:19.253Z,18.09
2023-05-02T13:59:51.387Z,18.06
2023-05-02T14:02:23.618Z,18.03
2023-05-02T14:04:56.179Z,18.00
2023-05-02T14:07:27.879Z,17.97
2023-05-02T14:09:58.275Z,17.95
2023-05-02T14:12:30.143Z,17.88
2023-05-02T14:15:01.866Z,17.84
2023-05-02T14:17:36.433Z,17.80
2023-05-02T14:20:12.277Z,17.77
2023-05-02T14:22:43.966Z,17.73
2023-05-02T14:25:15.777Z,17.71
2023-05-02T14:27:47.778Z,17.71
2023-05-02T14:30:20.084Z,17.72
2023-05-02T14:32:52.203Z,17.72
2023-05-02T14:35:24.922Z,17.70
2023-05-02T14:37:56.610Z,17.70
2023-05-02T14:40:28.855Z,17.66
2023-05-02T14:43:01.418Z,17.63
2023-05-02T14:45:33.422Z,17.56
2023-05-02T14:48:06.536Z,17.43
2023-05-02T14:50:39.755Z,17.27
2023-05-02T14:53:12.968Z,17.20
2023-05-02T14:55:44.949Z,17.17
2023-05-02T14:58:20.897Z,17.20
2023-05-02T15:00:52.858Z,17.20
2023-05-02T15:03:25.243Z,17.16
2023-05-02T15:05:57.414Z,17.13
2023-05-02T15:08:29.094Z,17.12
2023-05-02T15:11:01.025Z,17.15
2023-05-02T15:13:31.671Z,17.19
2023-05-02T15:16:03.818Z,17.17
2023-05-02T15:18:34.677Z,17.18
2023-05-02T15:21:07.074Z,17.16
2023-05-02T15:23:39.017Z,17.17
2023-05-02T15:26:12.876Z,17.16
2023-05-02T15:28:44.664Z,17.10
2023-05-02T15:31:15.402Z,17.05
2023-05-02T15:33:47.320Z,16.98
2023-05-02T15:36:17.987Z,16.96
2023-05-02T15:38:49.905Z,16.90
2023-05-02T15:41:20.341Z,16.87
2023-05-02T15:43:52.024Z,16.82
2023-05-02T15:46:23.791Z,16.83
2023-05-02T15:48:56.335Z,16.83
2023-05-02T15:51:28.601Z,16.82
2023-05-02T15:54:00.877Z,16.78
2023-05-02T15:56:32.902Z,16.76
2023-05-02T15:59:04.797Z,16.75
2023-05-02T16:01:36.673Z,16.74
2023-05-02T16:04:10.096Z,16.67
2023-05-02T16:06:42.220Z,16.60
2023-05-02T16:09:14.497Z,16.53
2023-05-02T16:11:46.436Z,16.49
2023-05-02T16:14:16.681Z,16.49
2023-05-02T16:16:48.610Z,16.48
2023-05-02T16:19:19.362Z,16.49
2023-05-02T16:21:51.640Z,16.47
2023-05-02T16:24:23.518Z,16.47
2023-05-02T16:26:53.856Z,16.46
2023-05-02T16:29:25.854Z,16.45
2023-05-02T16:31:57.820Z,16.43
2023-05-02T16:34:28.293Z,16.42
2023-05-02T16:37:01.854Z,16.39
2023-05-02T16:39:35.942Z,16.39
2023-05-02T16:42:08.495Z,16.35
2023-05-02T16:44:42.979Z,16.29
2023-05-02T16:47:16.567Z,16.25
2023-05-02T16:49:48.574Z,16.20
2023-05-02T16:52:20.431Z,16.16
2023-05-02T16:54:52.937Z,16.13
2023-05-02T16:57:24.734Z,16.09
2023-05-02T16:59:56.578Z,16.03
2023-05-02T17:02:27.266Z,15.93
2023-05-02T17:04:59.219Z,15.82
2023-05-02T17:07:31.359Z,15.69
2023-05-02T17:10:04.524Z,15.56
2023-05-02T17:12:36.559Z,15.45
2023-05-02T17:15:14.142Z,15.41
2023-05-02T17:17:48.485Z,15.36
2023-05-02T17:20:20.986Z,15.26
2023-05-02T17:22:54.467Z,15.20
2023-05-02T17:25:26.630Z,15.17
2023-05-02T17:27:58.854Z,15.15
2023-05-02T17:30:30.585Z,15.15
2023-05-02T17:33:02.922Z,15.14
2023-05-02T17:35:34.800Z,15.10
2023-05-02T17:38:06.894Z,15.07
2023-05-02T17:40:38.152Z,15.03
2023-05-02T17:43:10.291Z,14.97
2023-05-02T17:45:42.138Z,14.90
2023-05-02T17:48:14.260Z,14.83
2023-05-02T17:50:46.773Z,14.80
2023-05-02T17:53:18.783Z,14.80
2023-05-02T17:55:51.100Z,14.80
2023-05-02T17:58:22.939Z,14.79
2023-05-02T18:00:55.273Z,14.79
2023-05-02T18:03:30.032Z,14.77
2023-05-02T18:06:03.918Z,14.77
2023-05-02T18:08:44.728Z,14.76
2023-05-02T18:11:26.955Z,14.73
2023-05-02T18:14:06.391Z,14.72
2023-05-02T18:16:58.322Z,14.72
2023-05-02T18:19:36.133Z,14.71
2023-05-02T18:22:14.132Z,14.69
2023-05-02T18:24:46.085Z,14.67
2023-05-02T18:27:23.504Z,14.64
2023-05-02T18:30:01.265Z,14.63
2023-05-02T18:32:43.918Z,14.61
2023-05-02T18:35:18.990Z,14.59
2023-05-02T18:37:51.006Z,14.58
2023-05-02T18:40:24.631Z,14.57
2023-05-02T18:43:04.408Z,14.54
2023-05-02T18:45:39.143Z,14.53
2023-05-02T18:48:14.029Z,14.52
2023-05-02T18:50:50.164Z,14.52
2023-05-02T18:53:30.432Z,14.49
2023-05-02T18:56:06.972Z,14.46
2023-05-02T18:58:40.993Z,14.44
2023-05-02T19:01:24.045Z,14.41
2023-05-02T19:03:56.381Z,14.41
2023-05-02T19:06:29.633Z,14.40
2023-05-02T19:09:01.885Z,14.39
2023-05-02T19:11:33.663Z,14.37
2023-05-02T19:14:05.778Z,14.36
2023-05-02T19:16:41.115Z,14.35
2023-05-02T19:19:30.107Z,14.33
2023-05-02T19:22:07.094Z,14.33
2023-05-02T19:24:46.425Z,14.29
2023-05-02T19:27:27.432Z,14.27
2023-05-02T19:30:17.194Z,14.27
2023-05-02T19:32:55.873Z,14.25
2023-05-02T19:35:41.113Z,14.23
2023-05-02T19:38:17.383Z,14.19
2023-05-02T19:40:54.772Z,14.17
2023-05-02T19:43:34.714Z,14.17
2023-05-02T19:46:06.595Z,14.14
2023-05-02T19:48:55.600Z,14.10
2023-05-02T19:51:28.209Z,14.08
2023-05-02T19:54:09.781Z,14.05
2023-05-02T19:56:52.779Z,14.04
2023-05-02T19:59:30.976Z,14.04
2023-05-02T20:02:11.595Z,14.04
2023-05-02T20:04:43.525Z,14.04
2023-05-02T20:07:15.524Z,14.03
2023-05-02T20:09:47.660Z,14.04
2023-05-02T20:12:19.386Z,14.07
2023-05-02T20:14:51.118Z,14.08
2023-05-02T20:17:23.250Z,14.03
2023-05-02T20:19:54.769Z,13.93
2023-05-02T20:22:27.012Z,13.84
2023-05-02T20:24:58.867Z,13.80
2023-05-02T20:27:34.277Z,13.77
2023-05-02T20:30:07.327Z,13.74
2023-05-02T20:32:39.191Z,13.75
2023-05-02T20:35:12.300Z,13.73
2023-05-02T20:37:44.048Z,13.71
2023-05-02T20:40:16.617Z,13.65
2023-05-02T20:42:48.430Z,13.63
2023-05-02T20:45:24.159Z,13.59
2023-05-02T20:47:55.889Z,13.58
2023-05-02T20:50:28.410Z,13.55
2023-05-02T20:53:00.214Z,13.52
2023-05-02T20:55:32.241Z,13.50
2023-05-02T20:58:02.475Z,13.46
2023-05-02T21:00:34.262Z,13.41
2023-05-02T21:03:06.204Z,13.40
2023-05-02T21:05:38.162Z,13.42
2023-05-02T21:08:10.821Z,13.42
2023-05-02T21:10:42.744Z,13.43
2023-05-02T21:13:13.100Z,13.42
2023-05-02T21:15:44.922Z,13.39
2023-05-02T21:18:16.677Z,13.36
2023-05-02T21:20:49.688Z,13.35
2023-05-02T21:23:21.532Z,13.33
2023-05-02T21:25:53.382Z,13.33
2023-05-02T21:28:25.206Z,13.30
2023-05-02T21:30:57.054Z,13.27
2023-05-02T21:33:28.827Z,13.26
2023-05-02T21:36:01.498Z,13.24
2023-05-02T21:38:33.419Z,13.22
2023-05-02T21:41:06.101Z,13.20
2023-05-02T21:43:39.782Z,13.18
2023-05-02T21:46:13.292Z,13.19
2023-05-02T21:48:45.070Z,13.20
2023-05-02T21:51:17.077Z,13.19
2023-05-02T21:53:49.199Z,13.18
2023-05-02T21:56:21.188Z,13.19
2023-05-02T21:58:52.975Z,13.21
2023-05-02T22:01:24.849Z,13.21
2023-05-02T22:03:58.099Z,13.21
2023-05-02T22:06:29.948Z,13.21
2023-05-02T22:09:01.679Z,13.21
2023-05-02T22:11:34.543Z,13.20
2023-05-02T22:14:06.769Z,13.20
2023-05-02T22:16:40.125Z,13.17
2023-05-02T22:19:14.559Z,13.13
2023-05-02T22:21:46.735Z,13.12
2023-05-02T22:24:18.526Z,13.12
2023-05-02T22:26:52.480Z,13.11
2023-05-02T22:29:24.373Z,13.11
2023-05-02T22:31:56.236Z,13.09
2023-05-02T22:34:27.957Z,13.10
2023-05-02T22:36:59.744Z,13.12
2023-05-02T22:39:31.692Z,13.12
2023-05-02T22:42:02.097Z,13.14
2023-05-02T22:44:40.514Z,13.11
2023-05-02T22:47:19.267Z,13.10
2023-05-02T22:49:51.067Z,13.09
2023-05-02T22:52:22.699Z,13.07
2023-05-02T22:54:54.441Z,13.04
2023-05-02T22:57:26.908Z,13.03
2023-05-02T22:59:58.538Z,13.01
2023-05-02T23:02:30.402Z,12.98
2023-05-02T23:05:02.546Z,12.95
2023-05-02T23:07:37.122Z,12.93
2023-05-02T23:10:10.939Z,12.90
2023-05-02T23:12:43.057Z,12.84
2023-05-02T23:15:14.954Z,12.83
2023-05-02T23:17:45.526Z,12.82
2023-05-02T23:20:19.603Z,12.78
2023-05-02T23:22:51.441Z,12.74
2023-05-02T23:25:24.351Z,12.70
2023-05-02T23:27:56.298Z,12.63
2023-05-02T23:30:27.941Z,12.56
2023-05-02T23:33:00.259Z,12.53
2023-05-02T23:35:33.396Z,12.54
2023-05-02T23:38:08.189Z,12.50
2023-05-02T23:40:39.917Z,12.44
2023-05-02T23:43:13.817Z,12.39
2023-05-02T23:45:46.062Z,12.31
2023-05-02T23:48:17.844Z,12.27
2023-05-02T23:50:49.886Z,12.25
2023-05-02T23:53:20.107Z,12.27
2023-05-02T23:55:52.168Z,12.24
2023-05-02T23:58:22.567Z,12.20
